Time;durP1;ratioP1;P1;durP2;ratioP2;P2;SDS_P1;SDS_P2;PMS_P1;PMS_P2;Temp;Humidity;BMP_temperature;BMP_pressure;BME280_temperature;BME280_humidity;BME280_pressure;Samples;Min_cycle;Max_cycle;Signal;HPM_P1;HPM_P2
2021/08/09 00:00:05;;;;;;;3.27;2.20;;;11.20;99.90;;;;;;5053636;28;20200;-66
2021/08/09 00:02:31;;;;;;;3.30;2.28;;;11.20;99.90;;;;;;5053336;28;20281;-66
2021/08/09 00:04:57;;;;;;;2.43;2.20;;;11.20;99.90;;;;;;5053279;28;20257;-67
2021/08/09 00:07:23;;;;;;;4.07;2.20;;;11.20;99.90;;;;;;5053422;28;20216;-66
2021/08/09 00:09:48;;;;;;;3.37;1.80;;;11.20;99.90;;;;;;5053223;28;20196;-66
2021/08/09 00:12:14;;;;;;;1.60;1.50;;;11.20;99.90;;;;;;5053346;28;20546;-65
2021/08/09 00:14:40;;;;;;;2.20;1.80;;;11.20;99.90;;;;;;5053070;28;20219;-66
2021/08/09 00:17:06;;;;;;;2.30;1.80;;;11.20;99.90;;;;;;5053297;28;20170;-66
2021/08/09 00:19:32;;;;;;;2.72;2.22;;;11.20;99.90;;;;;;5053190;28;20513;-66
2021/08/09 00:21:58;;;;;;;7.27;2.10;;;11.10;99.90;;;;;;5053282;28;20190;-65
2021/08/09 00:24:23;;;;;;;1.67;1.57;;;11.10;99.90;;;;;;5052978;28;20185;-65
2021/08/09 00:26:49;;;;;;;3.90;2.57;;;11.20;99.90;;;;;;5053201;28;20178;-66
2021/08/09 00:29:15;;;;;;;2.63;2.03;;;11.10;99.90;;;;;;5053062;28;20174;-65
2021/08/09 00:31:40;;;;;;;2.80;2.07;;;11.20;99.90;;;;;;5052920;28;20190;-65
2021/08/09 00:34:06;;;;;;;1.70;1.60;;;11.20;99.90;;;;;;5053307;28;20166;-66
2021/08/09 00:36:32;;;;;;;4.67;2.57;;;11.20;99.90;;;;;;5057236;28;20176;-66
2021/08/09 00:38:57;;;;;;;3.03;1.80;;;11.20;99.90;;;;;;5055790;28;20483;-66
2021/08/09 00:41:23;;;;;;;7.40;2.03;;;11.10;99.90;;;;;;5057142;28;20182;-67
2021/08/09 00:43:49;;;;;;;3.13;2.73;;;11.00;99.90;;;;;;5057261;28;20216;-66
2021/08/09 00:46:15;;;;;;;2.30;1.90;;;11.00;99.90;;;;;;5057112;28;20636;-66
2021/08/09 00:48:40;;;;;;;1.67;1.43;;;11.00;99.90;;;;;;5057008;28;20193;-66
2021/08/09 00:51:09;;;;;;;3.27;1.97;;;11.10;99.90;;;;;;5056804;28;20190;-67
2021/08/09 00:53:34;;;;;;;6.20;2.38;;;11.10;99.90;;;;;;5056623;28;20261;-66
2021/08/09 00:56:02;;;;;;;3.80;1.90;;;11.10;99.90;;;;;;5056906;28;20728;-67
2021/08/09 00:58:28;;;;;;;1.50;1.40;;;11.10;99.90;;;;;;5056628;28;20292;-66
2021/08/09 01:00:54;;;;;;;5.63;2.28;;;11.10;99.90;;;;;;5056602;28;20190;-66
2021/08/09 01:03:19;;;;;;;2.60;2.40;;;11.10;99.90;;;;;;5056558;28;20526;-66
2021/08/09 01:05:48;;;;;;;3.30;2.50;;;11.00;99.90;;;;;;5056764;28;20178;-65
2021/08/09 01:08:26;;;;;;;2.20;2.00;;;11.10;99.90;;;;;;5056430;28;20186;-66
2021/08/09 01:11:20;;;;;;;2.13;1.42;;;11.00;99.90;;;;;;5056396;28;20221;-65
2021/08/09 01:14:01;;;;;;;3.53;2.35;;;11.00;99.90;;;;;;5056478;28;20155;-66
2021/08/09 01:16:35;;;;;;;2.90;2.63;;;11.00;99.90;;;;;;5056374;28;20188;-66
2021/08/09 01:19:07;;;;;;;2.45;2.25;;;11.00;99.90;;;;;;5056260;28;20178;-66
2021/08/09 01:21:34;;;;;;;4.13;2.05;;;10.90;99.90;;;;;;5056428;28;20190;-67
2021/08/09 01:24:36;;;;;;;2.33;2.13;;;10.90;99.90;;;;;;5056035;28;20166;-65
2021/08/09 01:27:18;;;;;;;2.70;2.50;;;10.90;99.90;;;;;;5047724;28;20182;-67
2021/08/09 01:29:45;;;;;;;2.17;1.98;;;10.90;99.90;;;;;;5056350;28;20170;-66
2021/08/09 01:32:12;;;;;;;3.25;2.00;;;10.80;99.90;;;;;;5055996;28;20178;-65
2021/08/09 01:34:38;;;;;;;3.55;2.10;;;10.70;99.90;;;;;;5055968;28;20181;-66
2021/08/09 01:37:05;;;;;;;1.55;1.45;;;10.60;99.90;;;;;;5056276;28;20640;-67
2021/08/09 01:39:31;;;;;;;2.42;1.85;;;10.60;99.90;;;;;;5056023;28;20243;-66
2021/08/09 01:41:58;;;;;;;3.00;2.70;;;10.70;99.90;;;;;;5055766;28;20213;-66
2021/08/09 01:44:25;;;;;;;5.53;2.08;;;10.70;99.90;;;;;;5055740;28;20166;-66
2021/08/09 01:46:51;;;;;;;3.83;2.58;;;10.70;99.90;;;;;;5054596;28;20246;-66
2021/08/09 01:49:18;;;;;;;2.83;2.35;;;10.80;99.90;;;;;;5055891;28;20178;-66
2021/08/09 01:51:45;;;;;;;3.90;2.13;;;10.80;99.90;;;;;;5054545;28;20194;-66
2021/08/09 01:54:12;;;;;;;4.45;2.00;;;10.80;99.90;;;;;;5055434;28;20174;-66
2021/08/09 01:56:40;;;;;;;2.63;2.42;;;10.80;99.90;;;;;;5055564;28;20167;-65
2021/08/09 01:59:06;;;;;;;6.43;2.33;;;10.90;99.90;;;;;;5055839;28;20202;-66
2021/08/09 02:01:31;;;;;;;2.07;1.87;;;10.80;99.90;;;;;;5055526;28;20193;-66
2021/08/09 02:03:57;;;;;;;9.83;2.50;;;10.80;99.90;;;;;;5055299;28;20405;-66
2021/08/09 02:06:23;;;;;;;4.00;2.50;;;10.70;99.90;;;;;;5055580;28;20197;-67
2021/08/09 02:08:49;;;;;;;3.00;2.27;;;10.80;99.90;;;;;;5055264;28;20697;-66
2021/08/09 02:11:18;;;;;;;3.50;2.30;;;10.70;99.90;;;;;;5055293;28;20194;-66
2021/08/09 02:14:02;;;;;;;3.20;2.50;;;10.60;99.90;;;;;;5055178;28;20779;-65
2021/08/09 02:16:42;;;;;;;2.55;2.35;;;10.60;99.90;;;;;;5055476;28;20174;-66
2021/08/09 02:19:26;;;;;;;4.18;3.05;;;10.60;99.90;;;;;;5055278;28;20232;-65
2021/08/09 02:22:06;;;;;;;7.70;3.10;;;10.70;99.90;;;;;;5055131;28;20202;-66
2021/08/09 02:24:39;;;;;;;7.38;1.88;;;10.80;99.90;;;;;;5055148;28;20166;-65
2021/08/09 02:27:09;;;;;;;3.90;3.00;;;10.90;99.90;;;;;;5055335;28;20601;-65
2021/08/09 02:29:38;;;;;;;3.03;2.28;;;10.90;99.90;;;;;;5055115;28;20232;-66
2021/08/09 02:32:07;;;;;;;3.40;2.47;;;10.90;99.90;;;;;;5054989;28;20285;-65
2021/08/09 02:34:34;;;;;;;4.50;2.50;;;10.90;99.90;;;;;;5054773;28;20533;-65
2021/08/09 02:37:02;;;;;;;5.40;2.90;;;11.00;99.90;;;;;;5054990;28;20568;-66
2021/08/09 02:39:31;;;;;;;3.45;2.55;;;11.10;99.90;;;;;;5054861;28;20198;-65
2021/08/09 02:41:57;;;;;;;2.42;2.08;;;11.10;99.90;;;;;;5054809;28;20660;-66
2021/08/09 02:44:23;;;;;;;3.03;2.17;;;11.00;99.90;;;;;;5054536;28;20181;-66
2021/08/09 02:46:49;;;;;;;2.58;2.25;;;11.00;99.90;;;;;;5054655;28;20170;-66
2021/08/09 02:49:18;;;;;;;5.50;2.40;;;11.10;99.90;;;;;;5054616;28;20538;-66
2021/08/09 02:51:45;;;;;;;2.80;2.28;;;11.10;99.90;;;;;;5054417;28;20440;-66
2021/08/09 02:54:13;;;;;;;2.33;2.00;;;11.10;99.90;;;;;;5053133;28;20667;-66
2021/08/09 02:56:39;;;;;;;3.55;2.65;;;11.20;99.90;;;;;;5054489;28;20236;-65
2021/08/09 02:59:05;;;;;;;1.90;1.70;;;11.20;99.90;;;;;;5054039;28;20201;-67
2021/08/09 03:01:33;;;;;;;3.00;2.30;;;11.20;99.90;;;;;;5054280;28;20451;-66
2021/08/09 03:04:00;;;;;;;2.95;2.22;;;11.20;99.90;;;;;;5054315;28;20178;-66
2021/08/09 03:06:27;;;;;;;2.72;1.95;;;11.20;99.90;;;;;;5054400;28;20249;-66
2021/08/09 03:08:54;;;;;;;2.60;2.40;;;11.10;99.90;;;;;;5052812;28;20251;-67
2021/08/09 03:11:21;;;;;;;2.17;1.33;;;11.10;99.90;;;;;;5054305;28;20286;-66
2021/08/09 03:13:48;;;;;;;1.77;1.67;;;11.00;99.90;;;;;;5054219;28;20554;-66
2021/08/09 03:16:14;;;;;;;3.13;2.20;;;11.00;99.90;;;;;;5054155;28;20534;-65
2021/08/09 03:18:40;;;;;;;2.05;1.95;;;11.10;99.90;;;;;;5053939;28;20236;-65
2021/08/09 03:21:06;;;;;;;6.00;2.70;;;11.10;99.90;;;;;;5054141;28;20186;-66
2021/08/09 03:23:33;;;;;;;7.13;2.70;;;11.10;99.90;;;;;;5053837;28;20541;-67
2021/08/09 03:25:59;;;;;;;2.60;2.40;;;11.10;99.90;;;;;;5054095;28;20264;-66
2021/08/09 03:28:24;;;;;;;4.55;2.58;;;11.10;99.90;;;;;;5054307;28;20174;-65
2021/08/09 03:30:50;;;;;;;3.67;2.20;;;11.10;99.90;;;;;;5053811;28;20205;-66
2021/08/09 03:33:16;;;;;;;4.30;2.93;;;11.10;99.90;;;;;;5053724;28;20179;-65
2021/08/09 03:35:42;;;;;;;2.93;2.30;;;11.20;99.90;;;;;;5053902;28;20405;-66
2021/08/09 03:38:07;;;;;;;5.10;2.83;;;11.20;99.90;;;;;;5053662;28;20185;-66
2021/08/09 03:40:33;;;;;;;2.77;2.57;;;11.20;99.90;;;;;;5053749;28;20397;-66
2021/08/09 03:42:59;;;;;;;10.63;2.30;;;11.30;99.90;;;;;;5053652;28;20285;-66
2021/08/09 03:45:24;;;;;;;4.30;2.70;;;11.30;99.90;;;;;;5053511;28;20171;-66
2021/08/09 03:47:50;;;;;;;4.07;2.43;;;11.40;99.90;;;;;;5052401;28;20690;-67
2021/08/09 03:50:16;;;;;;;2.43;2.30;;;11.40;99.90;;;;;;5053686;28;20170;-66
2021/08/09 03:52:49;;;;;;;1.73;1.63;;;11.40;99.90;;;;;;5053446;28;20577;-65
2021/08/09 03:55:15;;;;;;;3.03;2.58;;;11.40;99.90;;;;;;5053591;28;20174;-66
2021/08/09 03:57:41;;;;;;;4.50;3.05;;;11.40;99.90;;;;;;5053313;28;20233;-65
2021/08/09 04:00:07;;;;;;;3.40;3.10;;;11.40;99.90;;;;;;5053583;28;20193;-66
2021/08/09 04:02:33;;;;;;;2.70;2.50;;;11.50;99.90;;;;;;5053316;28;20190;-66
2021/08/09 04:04:59;;;;;;;2.47;2.23;;;11.50;99.90;;;;;;5053291;28;20179;-65
2021/08/09 04:07:28;;;;;;;4.95;3.65;;;11.50;99.90;;;;;;5053366;28;20170;-66
2021/08/09 04:09:54;;;;;;;3.30;2.70;;;11.60;99.90;;;;;;5052847;28;20274;-65
2021/08/09 04:12:21;;;;;;;6.70;2.20;;;11.60;99.90;;;;;;5053215;28;20322;-66
2021/08/09 04:14:47;;;;;;;2.65;2.33;;;11.60;99.90;;;;;;5052864;28;20401;-66
2021/08/09 04:17:13;;;;;;;4.27;2.60;;;11.60;99.90;;;;;;5053403;28;20189;-65
2021/08/09 04:19:38;;;;;;;8.37;2.50;;;11.60;99.90;;;;;;5053266;28;20448;-66
2021/08/09 04:22:04;;;;;;;3.90;2.80;;;11.60;99.90;;;;;;5053279;28;20194;-66
2021/08/09 04:24:30;;;;;;;2.77;2.00;;;11.50;99.90;;;;;;5052995;28;20408;-66
2021/08/09 04:26:55;;;;;;;3.07;2.60;;;11.50;99.90;;;;;;5053173;28;20244;-66
2021/08/09 04:29:21;;;;;;;2.40;2.13;;;11.40;99.90;;;;;;5053147;28;20541;-65
2021/08/09 04:31:47;;;;;;;4.40;2.33;;;11.30;99.90;;;;;;5052965;28;20198;-66
2021/08/09 04:34:12;;;;;;;2.87;2.30;;;11.30;99.90;;;;;;5052362;28;20170;-65
2021/08/09 04:36:38;;;;;;;2.70;2.30;;;11.20;99.90;;;;;;5053220;28;20647;-67
2021/08/09 04:39:04;;;;;;;2.03;1.67;;;11.20;99.90;;;;;;5052938;28;20205;-66
2021/08/09 04:41:29;;;;;;;6.53;2.30;;;11.20;99.90;;;;;;5053101;28;20235;-66
2021/08/09 04:43:55;;;;;;;2.80;2.60;;;11.20;99.90;;;;;;5052814;28;20249;-66
2021/08/09 04:46:21;;;;;;;2.33;2.07;;;11.20;99.90;;;;;;5052816;28;20163;-65
2021/08/09 04:48:46;;;;;;;3.10;2.33;;;11.30;99.90;;;;;;5053109;28;20655;-66
2021/08/09 04:51:13;;;;;;;4.17;2.20;;;11.40;99.90;;;;;;5053052;28;20197;-65
2021/08/09 04:53:39;;;;;;;2.60;2.40;;;11.60;99.90;;;;;;5052700;28;20162;-66
2021/08/09 04:56:05;;;;;;;7.13;2.63;;;11.70;99.90;;;;;;5052890;28;20196;-67
2021/08/09 04:58:30;;;;;;;2.85;2.65;;;11.80;99.90;;;;;;5052970;28;20225;-65
2021/08/09 05:00:56;;;;;;;3.10;2.20;;;11.90;99.90;;;;;;5052802;28;20201;-66
2021/08/09 05:03:22;;;;;;;6.07;2.70;;;12.10;99.90;;;;;;5052743;28;20174;-66
2021/08/09 05:05:47;;;;;;;4.27;2.20;;;12.30;99.90;;;;;;5052947;28;20224;-65
2021/08/09 05:08:13;;;;;;;3.53;3.23;;;12.40;99.90;;;;;;5052613;28;20214;-66
2021/08/09 05:10:39;;;;;;;6.50;3.60;;;12.50;99.90;;;;;;5051343;28;20265;-66
2021/08/09 05:13:05;;;;;;;3.00;2.70;;;12.70;99.90;;;;;;5052725;28;20208;-66
2021/08/09 05:15:33;;;;;;;6.10;2.20;;;12.80;99.90;;;;;;5052647;28;20404;-66
2021/08/09 05:17:58;;;;;;;6.10;2.13;;;12.90;99.90;;;;;;5052560;28;20186;-66
2021/08/09 05:20:24;;;;;;;5.00;2.60;;;13.10;99.90;;;;;;5053491;28;20457;-66
2021/08/09 05:22:50;;;;;;;2.87;2.40;;;13.20;99.90;;;;;;5056730;28;20174;-66
2021/08/09 05:25:16;;;;;;;3.23;1.80;;;13.30;99.90;;;;;;5056173;28;20167;-66
2021/08/09 05:27:42;;;;;;;2.43;2.23;;;13.60;99.90;;;;;;5056304;28;20404;-65
2021/08/09 05:30:09;;;;;;;1.90;1.70;;;13.90;99.90;;;;;;5056282;28;20270;-66
2021/08/09 05:32:37;;;;;;;1.63;1.40;;;14.10;99.90;;;;;;5056171;28;20431;-67
2021/08/09 05:35:04;;;;;;;1.40;1.30;;;14.30;99.90;;;;;;5055856;28;20459;-66
2021/08/09 05:37:32;;;;;;;2.97;1.80;;;14.40;99.90;;;;;;5056174;28;20401;-67
2021/08/09 05:39:58;;;;;;;2.83;2.07;;;14.50;99.90;;;;;;5056021;28;20424;-66
2021/08/09 05:42:24;;;;;;;3.60;2.23;;;14.50;99.90;;;;;;5055863;28;20452;-67
2021/08/09 05:44:50;;;;;;;1.60;1.50;;;14.80;99.90;;;;;;5055964;28;20835;-66
2021/08/09 05:47:15;;;;;;;4.27;1.93;;;15.20;99.90;;;;;;5056102;28;20817;-66
2021/08/09 05:49:41;;;;;;;1.97;1.40;;;15.70;99.90;;;;;;5055959;28;20196;-66
2021/08/09 05:52:07;;;;;;;1.70;1.60;;;16.00;98.60;;;;;;5055916;28;20673;-65
2021/08/09 05:54:32;;;;;;;2.57;2.17;;;16.20;98.60;;;;;;5055786;28;20201;-67
2021/08/09 05:56:59;;;;;;;3.73;1.63;;;16.20;97.80;;;;;;5055827;28;20201;-66
2021/08/09 05:59:24;;;;;;;3.60;1.83;;;16.20;97.90;;;;;;5055726;28;20210;-66
2021/08/09 06:01:50;;;;;;;5.17;2.00;;;16.20;98.10;;;;;;5055434;28;20425;-66
2021/08/09 06:04:15;;;;;;;4.13;2.30;;;16.20;98.50;;;;;;5055425;28;20171;-67
2021/08/09 06:06:42;;;;;;;6.43;1.40;;;16.50;98.50;;;;;;5055575;28;20616;-67
2021/08/09 06:09:08;;;;;;;2.13;1.93;;;16.80;97.90;;;;;;5055502;28;20191;-65
2021/08/09 06:11:34;;;;;;;1.90;1.80;;;17.20;97.00;;;;;;5055430;28;20431;-65
2021/08/09 06:14:00;;;;;;;2.30;1.27;;;17.60;96.80;;;;;;5055350;28;20624;-66
2021/08/09 06:16:27;;;;;;;3.43;1.50;;;17.80;95.90;;;;;;5055376;28;20174;-66
2021/08/09 06:18:54;;;;;;;1.57;1.40;;;18.20;95.40;;;;;;5055114;28;20448;-67
2021/08/09 06:21:20;;;;;;;3.60;2.40;;;19.00;95.40;;;;;;5055273;28;20424;-67
2021/08/09 06:23:45;;;;;;;2.90;1.53;;;20.20;93.60;;;;;;5054999;28;20414;-66
2021/08/09 06:26:11;;;;;;;1.20;1.10;;;21.30;91.00;;;;;;5055299;28;20170;-67
2021/08/09 06:28:37;;;;;;;1.03;0.90;;;22.20;88.80;;;;;;5055318;28;20178;-67
2021/08/09 06:31:02;;;;;;;1.23;1.13;;;22.80;85.70;;;;;;5055191;28;20197;-66
2021/08/09 06:33:28;;;;;;;1.50;1.40;;;23.80;81.50;;;;;;5054157;28;20577;-66
2021/08/09 06:35:53;;;;;;;1.70;1.17;;;24.70;79.00;;;;;;5054362;28;20699;-67
2021/08/09 06:38:19;;;;;;;1.30;1.20;;;25.20;76.50;;;;;;5054995;28;20664;-67
2021/08/09 06:40:45;;;;;;;2.43;0.93;;;25.40;72.90;;;;;;5054928;28;20667;-67
2021/08/09 06:43:11;;;;;;;1.63;1.40;;;25.00;73.80;;;;;;5054853;28;20201;-67
2021/08/09 06:45:43;;;;;;;7.10;1.53;;;25.10;73.50;;;;;;5054994;28;20257;-67
2021/08/09 06:48:11;;;;;;;2.37;1.23;;;25.60;71.80;;;;;;5054732;28;20420;-66
2021/08/09 06:50:39;;;;;;;4.73;1.70;;;26.20;71.00;;;;;;5054847;28;20383;-66
2021/08/09 06:53:04;;;;;;;3.63;1.37;;;26.80;69.40;;;;;;5054827;28;20798;-67
2021/08/09 06:55:30;;;;;;;3.10;2.53;;;26.60;67.70;;;;;;5054590;28;20495;-68
2021/08/09 06:57:56;;;;;;;3.07;2.40;;;25.80;66.50;;;;;;5054673;28;20198;-67
2021/08/09 07:00:21;;;;;;;4.00;3.20;;;25.20;70.00;;;;;;5054614;28;20257;-67
2021/08/09 07:02:47;;;;;;;2.63;2.10;;;24.80;70.70;;;;;;5054475;28;20170;-67
2021/08/09 07:05:13;;;;;;;4.47;2.43;;;24.20;71.60;;;;;;5054298;28;20177;-66
2021/08/09 07:07:40;;;;;;;3.23;1.50;;;24.00;74.10;;;;;;5054314;28;20212;-65
2021/08/09 07:10:06;;;;;;;1.43;1.33;;;24.00;73.60;;;;;;5054533;28;20173;-68
2021/08/09 07:12:32;;;;;;;1.47;1.37;;;24.10;76.60;;;;;;5054319;28;20406;-67
2021/08/09 07:14:57;;;;;;;1.20;1.10;;;24.20;75.30;;;;;;5054084;28;20516;-66
2021/08/09 07:17:23;;;;;;;1.60;1.00;;;25.00;72.50;;;;;;5054234;28;20167;-66
2021/08/09 07:19:48;;;;;;;2.70;1.43;;;25.90;70.00;;;;;;5054527;28;20244;-66
2021/08/09 07:22:14;;;;;;;1.83;1.23;;;27.00;66.60;;;;;;5052782;28;20289;-67
2021/08/09 07:24:40;;;;;;;1.23;0.93;;;27.70;63.90;;;;;;5053878;28;20252;-67
2021/08/09 07:27:05;;;;;;;0.80;0.80;;;28.30;60.60;;;;;;5054370;28;20249;-67
2021/08/09 07:29:31;;;;;;;1.70;1.03;;;28.50;59.70;;;;;;5054229;28;20211;-68
2021/08/09 07:31:58;;;;;;;2.30;1.40;;;28.90;57.10;;;;;;5054568;28;20190;-68
2021/08/09 07:34:23;;;;;;;1.07;1.00;;;29.30;56.30;;;;;;5052580;28;20391;-68
2021/08/09 07:36:49;;;;;;;1.97;0.90;;;29.90;53.30;;;;;;5053950;28;20495;-68
2021/08/09 07:39:15;;;;;;;1.87;1.33;;;30.30;54.50;;;;;;5054095;28;20205;-68
2021/08/09 07:41:41;;;;;;;1.60;1.50;;;30.50;52.00;;;;;;5053849;28;20194;-68
2021/08/09 07:44:06;;;;;;;4.40;2.23;;;31.00;50.70;;;;;;5052607;28;20405;-66
2021/08/09 07:46:32;;;;;;;1.17;1.07;;;31.30;51.30;;;;;;5053849;28;20206;-66
2021/08/09 07:48:58;;;;;;;2.00;1.13;;;31.40;48.30;;;;;;5052451;28;20186;-68
2021/08/09 07:51:23;;;;;;;2.30;1.30;;;31.90;47.00;;;;;;5053712;28;20202;-68
2021/08/09 07:53:49;;;;;;;3.07;1.07;;;31.90;49.80;;;;;;5053504;28;20180;-67
2021/08/09 07:56:15;;;;;;;1.00;1.00;;;32.00;47.80;;;;;;5053799;28;20178;-67
2021/08/09 07:58:40;;;;;;;3.23;0.93;;;32.40;45.80;;;;;;5053653;28;20208;-68
2021/08/09 08:01:07;;;;;;;2.00;0.90;;;32.60;46.20;;;;;;5053606;28;20277;-68
2021/08/09 08:03:33;;;;;;;1.37;1.03;;;32.30;44.10;;;;;;5053525;28;20170;-68
2021/08/09 08:05:58;;;;;;;0.77;0.77;;;31.90;44.50;;;;;;5053480;28;20415;-66
2021/08/09 08:08:24;;;;;;;1.00;0.87;;;31.70;44.50;;;;;;5053340;28;20189;-68
2021/08/09 08:10:50;;;;;;;1.63;1.30;;;31.10;44.70;;;;;;5053417;28;20227;-68
2021/08/09 08:13:15;;;;;;;1.20;1.10;;;31.20;46.70;;;;;;5053199;28;20259;-67
2021/08/09 08:15:41;;;;;;;1.87;0.80;;;31.40;44.80;;;;;;5053737;28;20178;-67
2021/08/09 08:18:07;;;;;;;1.97;0.93;;;31.50;43.40;;;;;;5053229;28;20194;-66
2021/08/09 08:20:32;;;;;;;1.87;1.13;;;31.20;43.30;;;;;;5053337;28;20184;-67
2021/08/09 08:23:02;;;;;;;1.30;1.17;;;31.20;46.00;;;;;;5053289;28;20178;-68
2021/08/09 08:25:27;;;;;;;1.83;0.83;;;31.10;45.00;;;;;;5053240;28;20166;-68
2021/08/09 08:27:53;;;;;;;1.60;1.07;;;31.70;43.10;;;;;;5053380;28;20901;-67
2021/08/09 08:30:20;;;;;;;0.70;0.70;;;31.80;43.00;;;;;;5053202;28;20174;-67
2021/08/09 08:32:45;;;;;;;1.53;0.90;;;31.30;43.70;;;;;;5053104;28;20186;-67
2021/08/09 08:35:11;;;;;;;3.33;1.50;;;31.60;43.10;;;;;;5053091;28;20478;-68
2021/08/09 08:37:37;;;;;;;1.77;1.20;;;31.50;42.10;;;;;;5053140;28;20174;-68
2021/08/09 08:40:03;;;;;;;0.90;0.80;;;31.70;42.10;;;;;;5053074;28;20478;-68
2021/08/09 08:42:30;;;;;;;0.63;0.63;;;32.10;42.40;;;;;;5053151;28;20660;-68
2021/08/09 08:44:55;;;;;;;2.60;1.30;;;32.20;41.80;;;;;;5052884;28;20455;-66
2021/08/09 08:47:21;;;;;;;1.40;0.80;;;31.70;43.10;;;;;;5053090;28;20432;-66
2021/08/09 08:49:48;;;;;;;1.60;1.33;;;31.30;41.50;;;;;;5053104;28;20190;-68
2021/08/09 08:52:15;;;;;;;0.63;0.60;;;31.20;45.20;;;;;;5052953;28;20194;-68
2021/08/09 08:54:41;;;;;;;1.33;1.07;;;32.10;43.30;;;;;;5052790;28;20416;-68
2021/08/09 08:57:21;;;;;;;3.90;1.17;;;32.70;39.20;;;;;;5056615;28;20411;-68
2021/08/09 08:59:48;;;;;;;1.00;0.90;;;32.80;39.10;;;;;;5056381;28;20208;-66
2021/08/09 09:02:33;;;;;;;1.00;0.93;;;32.00;40.50;;;;;;5056807;28;20425;-68
2021/08/09 09:05:16;;;;;;;3.33;1.20;;;30.80;41.10;;;;;;5056738;28;20397;-69
2021/08/09 09:07:45;;;;;;;1.87;1.43;;;28.80;43.90;;;;;;5056955;28;20484;-69
2021/08/09 09:10:18;;;;;;;4.10;1.10;;;27.40;47.20;;;;;;5056545;28;20412;-69
2021/08/09 09:13:04;;;;;;;2.37;1.60;;;26.00;48.90;;;;;;5056458;28;20955;-67
2021/08/09 09:15:30;;;;;;;1.60;1.40;;;25.60;49.70;;;;;;5056410;28;20379;-66
2021/08/09 09:17:56;;;;;;;2.40;1.47;;;25.60;50.60;;;;;;5056451;28;20948;-74
2021/08/09 09:20:26;;;;;;;1.43;1.10;;;25.90;49.90;;;;;;5056371;28;20170;-68
2021/08/09 09:23:12;;;;;;;1.00;0.87;;;26.50;49.90;;;;;;5056375;28;20147;-67
2021/08/09 09:25:37;;;;;;;1.60;1.47;;;28.30;47.10;;;;;;5056345;28;20861;-68
2021/08/09 09:28:30;;;;;;;1.53;0.93;;;28.80;43.20;;;;;;5056406;28;20500;-69
2021/08/09 09:31:07;;;;;;;1.43;1.10;;;29.10;43.50;;;;;;5056404;28;20221;-68
2021/08/09 09:33:33;;;;;;;2.30;1.20;;;30.00;45.20;;;;;;5056300;28;20413;-68
2021/08/09 09:36:04;;;;;;;1.47;0.90;;;31.70;45.00;;;;;;5056229;28;20431;-68
2021/08/09 09:38:43;;;;;;;3.43;0.93;;;32.40;41.40;;;;;;5056111;28;20919;-69
2021/08/09 09:41:09;;;;;;;1.83;0.90;;;32.90;38.10;;;;;;5055908;28;20424;-68
2021/08/09 09:43:43;;;;;;;0.97;0.90;;;31.70;41.10;;;;;;5055760;28;20772;-69
2021/08/09 09:46:21;;;;;;;1.17;1.00;;;30.90;40.60;;;;;;5055963;28;20420;-68
2021/08/09 09:48:48;;;;;;;1.37;0.90;;;30.20;41.60;;;;;;5055700;28;20404;-68
2021/08/09 09:51:16;;;;;;;1.33;1.00;;;28.70;47.20;;;;;;5055831;28;20982;-67
2021/08/09 09:53:43;;;;;;;2.07;1.13;;;28.20;44.40;;;;;;5055558;28;20496;-67
2021/08/09 09:56:09;;;;;;;1.10;1.00;;;28.20;44.30;;;;;;5055649;28;20420;-67
2021/08/09 09:58:37;;;;;;;0.90;0.90;;;28.10;43.50;;;;;;5054389;28;20448;-67
2021/08/09 10:01:03;;;;;;;1.63;1.20;;;28.20;45.50;;;;;;5055616;28;20795;-68
2021/08/09 10:03:34;;;;;;;1.30;1.00;;;28.40;43.70;;;;;;5055394;28;20409;-67
2021/08/09 10:06:01;;;;;;;1.20;0.83;;;29.10;45.10;;;;;;5055611;28;20400;-67
2021/08/09 10:08:40;;;;;;;1.13;0.83;;;28.70;42.00;;;;;;5054184;28;20926;-68
2021/08/09 10:11:06;;;;;;;2.30;1.13;;;27.20;44.00;;;;;;5055441;28;20447;-68
2021/08/09 10:13:33;;;;;;;1.27;1.03;;;26.60;47.70;;;;;;5055190;28;20467;-67
2021/08/09 10:16:07;;;;;;;1.60;1.37;;;26.70;47.40;;;;;;5055375;28;20503;-68
2021/08/09 10:18:37;;;;;;;1.30;1.20;;;26.60;46.00;;;;;;5055746;28;20448;-68
2021/08/09 10:21:04;;;;;;;1.10;0.97;;;26.40;46.30;;;;;;5055271;28;20527;-67
2021/08/09 10:23:47;;;;;;;1.67;1.53;;;26.50;48.40;;;;;;5055012;28;20419;-68
2021/08/09 10:26:33;;;;;;;0.97;0.77;;;26.70;49.00;;;;;;5055313;28;20798;-68
2021/08/09 10:29:11;;;;;;;1.70;1.40;;;27.50;44.80;;;;;;5055264;28;20428;-67
2021/08/09 10:31:39;;;;;;;1.23;1.00;;;27.10;47.00;;;;;;5055131;28;20432;-67
2021/08/09 10:34:29;;;;;;;1.13;1.00;;;27.30;46.10;;;;;;5054159;28;20416;-67
2021/08/09 10:37:19;;;;;;;1.90;1.37;;;28.20;45.60;;;;;;5053973;28;20796;-68
2021/08/09 10:40:02;;;;;;;1.00;1.00;;;27.80;45.20;;;;;;5054818;28;20855;-68
2021/08/09 10:42:39;;;;;;;0.90;0.90;;;26.70;45.50;;;;;;5055038;28;20828;-68
2021/08/09 10:45:10;;;;;;;1.37;1.17;;;25.80;48.20;;;;;;5053556;28;20968;-66
2021/08/09 10:47:49;;;;;;;1.77;1.20;;;25.80;48.80;;;;;;5054906;28;20763;-66
2021/08/09 10:50:42;;;;;;;2.80;1.23;;;26.10;50.50;;;;;;5054712;28;20439;-67
2021/08/09 10:53:26;;;;;;;1.07;0.97;;;26.10;49.70;;;;;;5054891;28;20392;-67
2021/08/09 10:55:53;;;;;;;1.03;1.00;;;26.60;50.30;;;;;;5054510;28;20860;-67
2021/08/09 10:58:45;;;;;;;2.33;1.20;;;27.00;46.50;;;;;;5054711;28;20456;-69
2021/08/09 11:01:15;;;;;;;1.23;0.90;;;26.60;46.20;;;;;;5054656;28;20403;-68
2021/08/09 11:03:59;;;;;;;1.13;0.97;;;26.00;49.80;;;;;;5054358;28;20389;-69
2021/08/09 11:06:55;;;;;;;1.57;1.00;;;26.00;49.10;;;;;;5054429;28;20379;-68
2021/08/09 11:09:35;;;;;;;1.00;0.80;;;25.90;49.60;;;;;;5054270;28;20413;-66
2021/08/09 11:12:16;;;;;;;1.87;1.10;;;25.80;49.90;;;;;;5054540;28;20756;-67
2021/08/09 11:15:03;;;;;;;1.00;0.90;;;25.80;49.60;;;;;;5054066;28;20388;-68
2021/08/09 11:17:43;;;;;;;2.20;1.13;;;25.60;49.40;;;;;;5054132;28;20394;-68
2021/08/09 11:20:13;;;;;;;1.03;1.03;;;25.40;49.90;;;;;;5054171;28;20499;-67
2021/08/09 11:22:40;;;;;;;1.00;1.00;;;25.40;53.80;;;;;;5053915;28;20421;-68
2021/08/09 11:25:25;;;;;;;1.93;1.30;;;25.20;51.60;;;;;;5053759;28;20379;-69
2021/08/09 11:27:59;;;;;;;2.93;1.20;;;25.10;52.10;;;;;;5053898;28;20527;-69
2021/08/09 11:30:35;;;;;;;0.93;0.73;;;25.20;55.00;;;;;;5053902;28;20404;-68
2021/08/09 11:33:02;;;;;;;1.53;1.43;;;25.50;52.70;;;;;;5053880;28;20726;-68
2021/08/09 11:35:28;;;;;;;1.83;0.83;;;25.80;52.90;;;;;;5053820;28;20383;-67
2021/08/09 11:37:55;;;;;;;1.70;1.37;;;25.80;52.50;;;;;;5053633;28;20404;-67
2021/08/09 11:40:50;;;;;;;2.10;0.87;;;25.80;49.80;;;;;;5053828;28;20523;-68
2021/08/09 11:43:25;;;;;;;1.87;1.10;;;26.00;52.30;;;;;;5053565;28;20730;-67
2021/08/09 11:45:52;;;;;;;1.23;0.90;;;26.40;50.60;;;;;;5053795;28;20366;-68
2021/08/09 11:48:26;;;;;;;2.17;1.13;;;26.50;51.50;;;;;;5053672;28;20400;-66
2021/08/09 11:50:59;;;;;;;0.97;0.80;;;26.40;50.80;;;;;;5053571;28;20391;-68
2021/08/09 11:53:25;;;;;;;1.90;1.00;;;26.20;48.80;;;;;;5053489;28;20454;-68
2021/08/09 11:56:06;;;;;;;2.13;1.20;;;26.20;51.90;;;;;;5053644;28;20404;-68
2021/08/09 11:58:32;;;;;;;1.60;1.10;;;25.70;49.10;;;;;;5053634;28;20468;-68
2021/08/09 12:00:58;;;;;;;1.23;1.13;;;25.50;51.70;;;;;;5053579;28;20935;-66
2021/08/09 12:03:27;;;;;;;2.60;1.30;;;25.10;49.20;;;;;;5053251;28;20190;-66
2021/08/09 12:05:53;;;;;;;3.53;1.30;;;24.70;51.50;;;;;;5053610;28;20628;-68
2021/08/09 12:08:19;;;;;;;1.00;0.90;;;24.40;54.10;;;;;;5053200;28;20432;-66
2021/08/09 12:10:45;;;;;;;2.10;1.40;;;24.40;56.20;;;;;;5053406;28;20424;-67
2021/08/09 12:13:29;;;;;;;1.23;1.07;;;24.60;54.90;;;;;;5053166;28;20166;-66
2021/08/09 12:16:15;;;;;;;2.40;1.30;;;24.50;53.50;;;;;;5053305;28;20376;-67
2021/08/09 12:18:52;;;;;;;4.23;1.40;;;24.30;53.40;;;;;;5053291;28;20930;-67
2021/08/09 12:21:19;;;;;;;1.37;1.23;;;24.20;55.40;;;;;;5053371;28;20425;-67
2021/08/09 12:23:58;;;;;;;3.40;1.20;;;24.00;54.20;;;;;;5052915;28;20401;-67
2021/08/09 12:26:25;;;;;;;1.40;1.30;;;23.80;55.40;;;;;;5053480;28;20398;-66
2021/08/09 12:28:59;;;;;;;1.30;1.20;;;23.60;52.40;;;;;;5053124;28;20465;-67
2021/08/09 12:31:45;;;;;;;2.77;1.30;;;23.40;53.70;;;;;;5054563;28;20472;-67
2021/08/09 12:34:12;;;;;;;1.93;1.27;;;23.40;55.10;;;;;;5057249;28;20496;-67
2021/08/09 12:36:39;;;;;;;3.13;1.07;;;23.70;58.90;;;;;;5057248;28;20381;-67
2021/08/09 12:39:06;;;;;;;4.87;1.30;;;23.90;57.50;;;;;;5057075;28;20473;-67
2021/08/09 12:41:34;;;;;;;5.30;1.27;;;24.00;58.10;;;;;;5057145;28;20781;-66
2021/08/09 12:44:03;;;;;;;1.27;1.17;;;24.10;56.10;;;;;;5056906;28;20379;-66
2021/08/09 12:46:29;;;;;;;1.73;1.30;;;24.00;57.90;;;;;;5057264;28;20399;-66
2021/08/09 12:48:55;;;;;;;1.90;1.50;;;23.90;56.60;;;;;;5057239;28;20382;-66
2021/08/09 12:51:21;;;;;;;2.37;1.47;;;24.00;56.80;;;;;;5056903;28;20455;-67
2021/08/09 12:53:47;;;;;;;2.87;1.20;;;23.90;54.80;;;;;;5056834;28;20170;-65
2021/08/09 12:56:13;;;;;;;2.30;2.10;;;23.90;56.00;;;;;;5057016;28;20177;-68